Time;durP1;ratioP1;P1;durP2;ratioP2;P2;SDS_P1;SDS_P2;PMS_P1;PMS_P2;Temp;Humidity;BMP_temperature;BMP_pressure;BME280_temperature;BME280_humidity;BME280_pressure;Samples;Min_cycle;Max_cycle;Signal;HPM_P1;HPM_P2
2023/11/24 00:00:46;;;;;;;8.93;1.10;;;;;;;;;;5030958;28;20041;-74
2023/11/24 00:03:16;;;;;;;3.78;0.65;;;;;;;;;;5027931;28;20053;-74
2023/11/24 00:05:48;;;;;;;9.30;1.00;;;;;;;;;;5028407;28;20049;-74
2023/11/24 00:08:18;;;;;;;2.63;0.70;;;;;;;;;;5027990;28;20056;-74
2023/11/24 00:10:48;;;;;;;3.80;1.02;;;;;;;;;;5028547;28;20045;-75
2023/11/24 00:13:20;;;;;;;6.72;0.80;;;;;;;;;;5027055;28;20045;-73
2023/11/24 00:15:51;;;;;;;4.45;0.77;;;;;;;;;;5029085;28;20054;-73
2023/11/24 00:18:22;;;;;;;6.32;0.70;;;;;;;;;;5027970;28;20042;-74
2023/11/24 00:20:55;;;;;;;5.05;0.95;;;;;;;;;;5028759;28;20500;-73
2023/11/24 00:23:26;;;;;;;7.25;1.10;;;;;;;;;;5028184;28;20051;-73
2023/11/24 00:25:56;;;;;;;5.13;0.95;;;;;;;;;;5028804;28;20048;-74
2023/11/24 00:28:28;;;;;;;2.35;0.70;;;;;;;;;;5027617;28;20046;-74
2023/11/24 00:30:59;;;;;;;6.82;1.10;;;;;;;;;;5027749;28;20512;-73
2023/11/24 00:33:32;;;;;;;5.88;1.15;;;;;;;;;;5028293;28;20056;-73
2023/11/24 00:36:05;;;;;;;7.60;0.80;;;;;;;;;;5026880;28;20076;-73
2023/11/24 00:38:35;;;;;;;9.82;1.05;;;;;;;;;;5027218;28;20060;-73
2023/11/24 00:41:09;;;;;;;3.67;0.63;;;;;;;;;;5027602;28;20049;-73
2023/11/24 00:43:44;;;;;;;3.58;1.00;;;;;;;;;;5026892;28;20816;-74
2023/11/24 00:46:17;;;;;;;8.30;0.90;;;;;;;;;;5027182;28;20049;-74
2023/11/24 00:48:52;;;;;;;6.75;0.85;;;;;;;;;;5027930;28;20057;-74
2023/11/24 00:51:25;;;;;;;6.72;1.05;;;;;;;;;;5025314;28;20057;-74
2023/11/24 00:53:58;;;;;;;7.85;0.60;;;;;;;;;;5027494;28;20053;-74
2023/11/24 00:56:32;;;;;;;2.40;0.47;;;;;;;;;;5027455;28;20057;-74
2023/11/24 00:59:03;;;;;;;5.00;0.93;;;;;;;;;;5025070;28;20475;-74
2023/11/24 01:01:33;;;;;;;4.05;1.05;;;;;;;;;;5026717;28;20049;-73
2023/11/24 01:04:04;;;;;;;7.70;0.80;;;;;;;;;;5023825;28;20057;-73
2023/11/24 01:06:36;;;;;;;5.82;1.27;;;;;;;;;;5023309;28;20543;-74
2023/11/24 01:09:09;;;;;;;5.13;1.13;;;;;;;;;;5024970;28;20420;-73
2023/11/24 01:11:41;;;;;;;5.70;1.02;;;;;;;;;;5024006;28;20065;-73
2023/11/24 01:14:11;;;;;;;5.75;1.25;;;;;;;;;;5025621;28;20042;-74
2023/11/24 01:16:43;;;;;;;4.88;0.75;;;;;;;;;;5007167;28;20053;-74
2023/11/24 01:19:17;;;;;;;5.00;1.00;;;;;;;;;;5024444;28;21189;-73
2023/11/24 01:21:48;;;;;;;5.68;1.75;;;;;;;;;;5024813;28;20060;-74
2023/11/24 01:24:19;;;;;;;7.00;0.90;;;;;;;;;;5022943;28;20064;-73
2023/11/24 01:26:49;;;;;;;8.85;0.95;;;;;;;;;;5023878;28;20527;-73
2023/11/24 01:29:20;;;;;;;3.33;0.60;;;;;;;;;;5022824;28;20057;-73
2023/11/24 01:31:51;;;;;;;1.85;0.50;;;;;;;;;;5025094;28;20767;-74
2023/11/24 01:34:22;;;;;;;9.45;1.25;;;;;;;;;;5024356;28;20079;-74
2023/11/24 01:36:55;;;;;;;8.27;1.40;;;;;;;;;;5023799;28;20415;-74
2023/11/24 01:39:26;;;;;;;6.22;1.20;;;;;;;;;;5022604;28;20060;-74
2023/11/24 01:41:58;;;;;;;6.45;0.70;;;;;;;;;;5024594;28;20049;-73
2023/11/24 01:44:29;;;;;;;7.63;0.98;;;;;;;;;;5024507;28;20057;-74
2023/11/24 01:47:00;;;;;;;4.30;0.73;;;;;;;;;;5024686;28;20516;-74
2023/11/24 01:49:33;;;;;;;5.10;1.00;;;;;;;;;;5024658;28;20056;-73
2023/11/24 01:52:05;;;;;;;8.63;1.00;;;;;;;;;;5023923;28;20049;-74
2023/11/24 01:54:38;;;;;;;9.35;1.02;;;;;;;;;;5022592;28;20053;-74
2023/11/24 01:57:11;;;;;;;5.57;0.70;;;;;;;;;;5023131;28;20048;-74
2023/11/24 01:59:42;;;;;;;7.95;1.17;;;;;;;;;;5022347;28;20045;-73
2023/11/24 02:02:14;;;;;;;10.27;1.65;;;;;;;;;;5022552;28;20049;-73
2023/11/24 02:04:45;;;;;;;5.13;0.80;;;;;;;;;;5006924;28;20049;-73
2023/11/24 02:07:18;;;;;;;8.18;1.20;;;;;;;;;;5024016;28;20056;-73
2023/11/24 02:09:49;;;;;;;8.52;1.40;;;;;;;;;;5006576;28;20057;-73
2023/11/24 02:12:20;;;;;;;5.47;1.15;;;;;;;;;;5024389;28;20045;-73
2023/11/24 02:14:50;;;;;;;5.05;1.00;;;;;;;;;;5022305;28;20056;-73
2023/11/24 02:17:21;;;;;;;8.45;1.10;;;;;;;;;;5022227;28;20049;-73
2023/11/24 02:19:52;;;;;;;2.40;0.90;;;;;;;;;;5005581;28;20057;-73
2023/11/24 02:22:22;;;;;;;3.90;1.10;;;;;;;;;;5022826;28;20042;-73
2023/11/24 02:24:52;;;;;;;5.63;1.00;;;;;;;;;;5023949;28;20499;-79
2023/11/24 02:27:24;;;;;;;7.03;1.33;;;;;;;;;;5023234;28;20056;-73
2023/11/24 02:29:54;;;;;;;7.18;1.10;;;;;;;;;;5023260;28;20057;-73
2023/11/24 02:32:24;;;;;;;12.98;1.83;;;;;;;;;;5022353;28;20405;-73
2023/11/24 02:34:55;;;;;;;6.78;1.63;;;;;;;;;;5022588;28;20092;-74
2023/11/24 02:37:25;;;;;;;12.25;1.50;;;;;;;;;;5021426;28;20049;-73
2023/11/24 02:39:56;;;;;;;5.57;1.52;;;;;;;;;;5023256;28;20817;-74
2023/11/24 02:42:27;;;;;;;4.97;1.00;;;;;;;;;;5023444;28;20045;-77
2023/11/24 02:44:57;;;;;;;5.38;1.10;;;;;;;;;;5022936;28;20053;-74
2023/11/24 02:47:27;;;;;;;6.82;1.00;;;;;;;;;;5021323;28;20058;-73
2023/11/24 02:49:58;;;;;;;9.68;1.10;;;;;;;;;;5022852;28;20052;-74
2023/11/24 02:52:28;;;;;;;14.40;1.60;;;;;;;;;;5021365;28;20057;-73
2023/11/24 02:54:59;;;;;;;4.43;1.02;;;;;;;;;;5023597;28;20543;-74
2023/11/24 02:57:29;;;;;;;5.90;1.00;;;;;;;;;;5022637;28;20049;-73
2023/11/24 03:00:01;;;;;;;5.35;1.40;;;;;;;;;;5021486;28;20425;-74
2023/11/24 03:02:32;;;;;;;11.77;1.65;;;;;;;;;;5021264;28;20057;-73
2023/11/24 03:05:04;;;;;;;6.78;1.10;;;;;;;;;;5021402;28;20061;-74
2023/11/24 03:07:36;;;;;;;8.02;1.58;;;;;;;;;;5023040;28;20412;-74
2023/11/24 03:10:08;;;;;;;6.90;1.30;;;;;;;;;;5022101;28;20053;-74
2023/11/24 03:12:38;;;;;;;8.65;1.15;;;;;;;;;;5023237;28;20052;-74
2023/11/24 03:15:11;;;;;;;4.95;0.95;;;;;;;;;;5022248;28;20045;-73
2023/11/24 03:17:41;;;;;;;5.28;0.80;;;;;;;;;;5022181;28;20496;-73
2023/11/24 03:20:44;;;;;;;7.22;1.38;;;;;;;;;;5021087;28;20053;-74
2023/11/24 03:23:14;;;;;;;7.53;1.17;;;;;;;;;;5021336;28;20053;-74
2023/11/24 03:25:44;;;;;;;11.38;1.25;;;;;;;;;;5021845;28;20052;-73
2023/11/24 03:28:16;;;;;;;5.85;1.10;;;;;;;;;;5022159;28;20373;-73
2023/11/24 03:30:46;;;;;;;8.32;0.90;;;;;;;;;;5022890;28;21054;-74
2023/11/24 03:33:17;;;;;;;8.73;1.13;;;;;;;;;;5022086;28;20064;-74
2023/11/24 03:35:47;;;;;;;8.40;1.10;;;;;;;;;;5022228;28;20770;-74
2023/11/24 03:38:17;;;;;;;5.43;0.95;;;;;;;;;;5021992;28;20056;-73
2023/11/24 03:40:54;;;;;;;7.13;0.82;;;;;;;;;;5023093;28;20126;-74
2023/11/24 03:43:26;;;;;;;13.50;1.50;;;;;;;;;;5004807;28;20057;-73
2023/11/24 03:45:56;;;;;;;5.25;0.70;;;;;;;;;;5022484;28;20046;-74
2023/11/24 03:48:30;;;;;;;3.85;0.63;;;;;;;;;;5021116;28;20060;-74
2023/11/24 03:51:01;;;;;;;4.00;0.90;;;;;;;;;;5022538;28;20061;-74
2023/11/24 03:53:31;;;;;;;3.78;1.00;;;;;;;;;;5021841;28;20053;-74
2023/11/24 03:56:04;;;;;;;7.10;1.05;;;;;;;;;;5021974;28;20054;-74
2023/11/24 03:58:34;;;;;;;10.05;0.80;;;;;;;;;;5021849;28;20053;-74
2023/11/24 04:01:04;;;;;;;8.25;1.40;;;;;;;;;;5021631;28;20049;-74
2023/11/24 04:03:35;;;;;;;6.95;0.85;;;;;;;;;;5022430;28;20049;-73
2023/11/24 04:06:06;;;;;;;4.88;0.93;;;;;;;;;;5021916;28;20598;-74
2023/11/24 04:08:37;;;;;;;7.88;1.20;;;;;;;;;;5021078;28;20080;-73
2023/11/24 04:11:09;;;;;;;4.40;0.77;;;;;;;;;;5020770;28;20092;-74
2023/11/24 04:13:40;;;;;;;11.02;1.00;;;;;;;;;;5021712;28;20053;-73
2023/11/24 04:16:13;;;;;;;7.68;1.25;;;;;;;;;;5021693;28;20070;-73
2023/11/24 04:18:44;;;;;;;16.45;1.60;;;;;;;;;;5022702;28;20518;-74
2023/11/24 04:21:16;;;;;;;6.05;1.27;;;;;;;;;;5022404;28;20056;-74
2023/11/24 04:23:46;;;;;;;4.90;1.02;;;;;;;;;;5021946;28;20504;-74
2023/11/24 04:26:18;;;;;;;4.95;0.90;;;;;;;;;;5021571;28;20507;-73
2023/11/24 04:28:49;;;;;;;9.63;1.23;;;;;;;;;;5021626;28;20064;-74
2023/11/24 04:31:19;;;;;;;7.63;2.28;;;;;;;;;;5020669;28;20061;-74
2023/11/24 04:33:50;;;;;;;4.65;1.33;;;;;;;;;;5021820;28;20049;-74
2023/11/24 04:36:21;;;;;;;4.90;1.13;;;;;;;;;;5021508;28;20075;-74
2023/11/24 04:38:51;;;;;;;6.18;0.93;;;;;;;;;;5023088;28;20060;-74
2023/11/24 04:41:21;;;;;;;7.93;0.90;;;;;;;;;;5024812;28;20049;-73
2023/11/24 04:43:51;;;;;;;8.63;1.70;;;;;;;;;;5025019;28;20057;-73
2023/11/24 04:46:23;;;;;;;7.05;1.25;;;;;;;;;;5025352;28;20045;-74
2023/11/24 04:48:54;;;;;;;18.08;1.55;;;;;;;;;;5025327;28;20049;-74
2023/11/24 04:51:24;;;;;;;4.80;1.02;;;;;;;;;;5025770;28;20405;-74
2023/11/24 04:53:57;;;;;;;5.90;0.95;;;;;;;;;;5025108;28;20056;-74
2023/11/24 04:56:28;;;;;;;9.57;0.90;;;;;;;;;;5025384;28;20053;-74
2023/11/24 04:58:59;;;;;;;8.10;0.77;;;;;;;;;;5024982;28;20049;-73
2023/11/24 05:01:30;;;;;;;7.35;1.38;;;;;;;;;;5024942;28;20064;-73
2023/11/24 05:04:00;;;;;;;5.75;0.70;;;;;;;;;;5024789;28;20041;-73
2023/11/24 05:06:31;;;;;;;8.13;1.27;;;;;;;;;;5025552;28;20053;-73
2023/11/24 05:09:02;;;;;;;3.95;0.82;;;;;;;;;;5026194;28;20045;-73
2023/11/24 05:11:32;;;;;;;7.25;1.05;;;;;;;;;;5025400;28;20060;-74
2023/11/24 05:14:03;;;;;;;6.32;1.17;;;;;;;;;;5024489;28;20053;-74
2023/11/24 05:16:33;;;;;;;4.47;1.10;;;;;;;;;;5025011;28;20404;-74
2023/11/24 05:19:03;;;;;;;8.18;1.08;;;;;;;;;;5024861;28;20045;-74
2023/11/24 05:21:34;;;;;;;3.20;0.63;;;;;;;;;;5025230;28;20507;-74
2023/11/24 05:24:06;;;;;;;10.60;1.17;;;;;;;;;;5024747;28;20049;-74
2023/11/24 05:26:37;;;;;;;5.78;1.33;;;;;;;;;;5024432;28;20528;-74
2023/11/24 05:29:07;;;;;;;6.20;0.90;;;;;;;;;;5024468;28;20533;-74
2023/11/24 05:31:38;;;;;;;5.07;0.98;;;;;;;;;;5024580;28;20053;-74
2023/11/24 05:34:08;;;;;;;6.20;0.75;;;;;;;;;;5024779;28;20045;-74
2023/11/24 05:36:42;;;;;;;9.73;1.35;;;;;;;;;;5025340;28;20382;-74
2023/11/24 05:39:13;;;;;;;3.00;1.10;;;;;;;;;;5024573;28;20049;-73
2023/11/24 05:41:46;;;;;;;5.60;0.88;;;;;;;;;;5024837;28;20049;-73
2023/11/24 05:44:18;;;;;;;2.40;0.88;;;;;;;;;;5023808;28;20041;-74
2023/11/24 05:46:48;;;;;;;8.45;1.20;;;;;;;;;;5024900;28;20057;-74
2023/11/24 05:49:19;;;;;;;3.53;1.10;;;;;;;;;;5023387;28;20432;-74
2023/11/24 05:51:52;;;;;;;6.20;1.25;;;;;;;;;;5024364;28;20423;-74
2023/11/24 05:54:22;;;;;;;5.80;0.70;;;;;;;;;;5023207;28;20049;-73
2023/11/24 05:56:52;;;;;;;3.08;0.88;;;;;;;;;;5024284;28;20053;-74
2023/11/24 05:59:22;;;;;;;2.80;1.52;;;;;;;;;;5024139;28;20479;-74
2023/11/24 06:01:52;;;;;;;4.70;1.02;;;;;;;;;;5023759;28;20049;-73
2023/11/24 06:04:23;;;;;;;2.40;0.80;;;;;;;;;;5023903;28;20049;-73
2023/11/24 06:06:52;;;;;;;5.70;0.95;;;;;;;;;;5024465;28;20424;-74
2023/11/24 06:09:26;;;;;;;5.28;0.68;;;;;;;;;;5023884;28;20500;-74
2023/11/24 06:11:56;;;;;;;9.63;1.10;;;;;;;;;;5023903;28;20408;-73
2023/11/24 06:14:27;;;;;;;10.50;0.80;;;;;;;;;;5023964;28;20078;-73
2023/11/24 06:16:57;;;;;;;4.40;0.65;;;;;;;;;;5023745;28;20053;-73
2023/11/24 06:19:27;;;;;;;5.18;0.80;;;;;;;;;;5022988;28;20538;-73
2023/11/24 06:21:58;;;;;;;5.30;0.90;;;;;;;;;;5023617;28;20045;-73
2023/11/24 06:24:29;;;;;;;9.63;0.70;;;;;;;;;;5023577;28;20820;-73
2023/11/24 06:27:00;;;;;;;7.93;1.00;;;;;;;;;;5023441;28;20427;-73
2023/11/24 06:29:30;;;;;;;6.25;0.70;;;;;;;;;;5023105;28;20064;-73
2023/11/24 06:31:59;;;;;;;;;;;;;;;;;;5023701;28;20053;-73
2023/11/24 06:34:30;;;;;;;4.05;0.88;;;;;;;;;;5023340;28;19929;-73
2023/11/24 06:37:00;;;;;;;4.10;1.00;;;;;;;;;;5023139;28;20190;-73
2023/11/24 06:39:31;;;;;;;3.97;0.63;;;;;;;;;;5022758;28;20045;-73
2023/11/24 06:42:04;;;;;;;5.38;1.13;;;;;;;;;;5023394;28;20049;-72
2023/11/24 06:44:34;;;;;;;7.68;0.98;;;;;;;;;;5023216;28;20057;-73
2023/11/24 06:47:05;;;;;;;2.50;0.70;;;;;;;;;;5023062;28;20049;-73
2023/11/24 06:49:36;;;;;;;5.00;1.30;;;;;;;;;;5023623;28;20049;-73
2023/11/24 06:52:06;;;;;;;10.32;0.77;;;;;;;;;;5022537;28;20053;-73
2023/11/24 06:54:38;;;;;;;3.83;0.80;;;;;;;;;;5022946;28;20060;-73
2023/11/24 06:57:08;;;;;;;1.33;0.60;;;;;;;;;;5022225;28;20535;-73
2023/11/24 06:59:39;;;;;;;2.60;0.98;;;;;;;;;;5023179;28;20385;-73
2023/11/24 07:02:09;;;;;;;3.33;1.25;;;;;;;;;;5022441;28;20401;-73
2023/11/24 07:04:39;;;;;;;6.40;1.30;;;;;;;;;;5023609;28;20056;-73
2023/11/24 07:07:10;;;;;;;7.88;0.88;;;;;;;;;;5022841;28;20045;-72
2023/11/24 07:09:40;;;;;;;11.63;0.80;;;;;;;;;;5021700;28;20061;-73
2023/11/24 07:12:17;;;;;;;5.00;0.80;;;;;;;;;;5022339;28;20068;-74
2023/11/24 07:14:48;;;;;;;3.88;0.55;;;;;;;;;;5022185;28;20049;-74
2023/11/24 07:17:18;;;;;;;11.85;1.00;;;;;;;;;;5022637;28;20037;-73
2023/11/24 07:19:48;;;;;;;5.63;1.15;;;;;;;;;;5021416;28;20049;-72
2023/11/24 07:22:20;;;;;;;5.95;0.60;;;;;;;;;;5022343;28;20056;-74
2023/11/24 07:24:51;;;;;;;3.17;0.90;;;;;;;;;;5021090;28;20053;-73
2023/11/24 07:27:21;;;;;;;4.20;0.80;;;;;;;;;;5021830;28;20052;-73
2023/11/24 07:29:51;;;;;;;2.95;1.00;;;;;;;;;;5021589;28;20049;-72
2023/11/24 07:32:27;;;;;;;5.00;0.90;;;;;;;;;;5022311;28;20049;-74
2023/11/24 07:34:57;;;;;;;10.57;0.95;;;;;;;;;;5023142;28;20049;-73
2023/11/24 07:37:27;;;;;;;6.07;1.00;;;;;;;;;;5022986;28;20413;-74
2023/11/24 07:40:02;;;;;;;10.13;1.13;;;;;;;;;;5021994;28;20424;-73
2023/11/24 07:42:37;;;;;;;4.47;0.70;;;;;;;;;;5021752;28;20053;-73
2023/11/24 07:45:10;;;;;;;8.45;0.80;;;;;;;;;;5022165;28;20508;-73
2023/11/24 07:47:41;;;;;;;12.65;1.40;;;;;;;;;;5022621;28;20060;-73
2023/11/24 07:50:11;;;;;;;4.93;0.82;;;;;;;;;;5021573;28;20056;-73
2023/11/24 07:52:43;;;;;;;2.85;0.60;;;;;;;;;;5022323;28;20065;-73
2023/11/24 07:55:15;;;;;;;5.13;0.77;;;;;;;;;;5022197;28;20041;-73
2023/11/24 07:57:45;;;;;;;6.07;1.63;;;;;;;;;;5022205;28;20068;-74
2023/11/24 08:00:17;;;;;;;7.85;0.77;;;;;;;;;;5021111;28;20049;-73
2023/11/24 08:02:48;;;;;;;8.40;1.02;;;;;;;;;;5022427;28;20053;-74
2023/11/24 08:05:52;;;;;;;6.47;1.25;;;;;;;;;;5022986;28;20049;-73
2023/11/24 08:08:22;;;;;;;5.70;0.88;;;;;;;;;;5022082;28;20041;-73
2023/11/24 08:10:52;;;;;;;2.90;1.10;;;;;;;;;;5021252;28;20425;-72
2023/11/24 08:13:23;;;;;;;3.70;0.80;;;;;;;;;;5023529;28;20053;-72
2023/11/24 08:15:54;;;;;;;11.88;1.20;;;;;;;;;;5025956;28;20081;-74
2023/11/24 08:18:25;;;;;;;2.45;0.80;;;;;;;;;;5026234;28;20053;-74
2023/11/24 08:20:58;;;;;;;4.07;0.90;;;;;;;;;;5026166;28;20507;-72
2023/11/24 08:23:29;;;;;;;5.43;0.85;;;;;;;;;;5024317;28;20053;-73
2023/11/24 08:25:59;;;;;;;3.85;0.80;;;;;;;;;;5025561;28;20623;-74
2023/11/24 08:28:30;;;;;;;13.77;1.02;;;;;;;;;;5025432;28;20057;-73
2023/11/24 08:31:01;;;;;;;6.50;1.10;;;;;;;;;;5024532;28;20053;-74
2023/11/24 08:33:32;;;;;;;4.75;0.98;;;;;;;;;;5026089;28;20053;-73
2023/11/24 08:36:02;;;;;;;6.20;0.90;;;;;;;;;;5025147;28;20049;-73
2023/11/24 08:38:33;;;;;;;6.95;1.08;;;;;;;;;;5025721;28;20076;-74
2023/11/24 08:41:13;;;;;;;5.15;0.95;;;;;;;;;;5025549;28;20049;-73
2023/11/24 08:44:04;;;;;;;3.53;1.35;;;;;;;;;;5025250;28;20041;-72
2023/11/24 08:46:35;;;;;;;7.88;1.13;;;;;;;;;;5025320;28;20052;-72
2023/11/24 08:49:08;;;;;;;5.22;0.88;;;;;;;;;;5024250;28;20065;-76
2023/11/24 08:51:39;;;;;;;6.55;1.27;;;;;;;;;;5025038;28;20061;-73
2023/11/24 08:54:10;;;;;;;2.03;0.77;;;;;;;;;;5008146;28;20056;-74
2023/11/24 08:56:40;;;;;;;8.85;1.10;;;;;;;;;;5026197;28;20057;-73
2023/11/24 08:59:11;;;;;;;6.57;0.95;;;;;;;;;;5025240;28;20512;-72
2023/11/24 09:01:42;;;;;;;4.60;1.08;;;;;;;;;;5024207;28;20053;-74
2023/11/24 09:04:13;;;;;;;7.03;1.10;;;;;;;;;;5025262;28;20049;-73
2023/11/24 09:06:44;;;;;;;4.78;0.90;;;;;;;;;;5024694;28;20068;-73
2023/11/24 09:09:14;;;;;;;4.63;0.85;;;;;;;;;;5024715;28;20041;-73
2023/11/24 09:11:46;;;;;;;8.43;1.05;;;;;;;;;;5024708;28;20389;-74
2023/11/24 09:14:17;;;;;;;8.57;1.35;;;;;;;;;;5023557;28;20057;-72
2023/11/24 09:16:49;;;;;;;4.15;1.10;;;;;;;;;;5024934;28;20051;-74
2023/11/24 09:19:20;;;;;;;10.73;1.15;;;;;;;;;;5025238;28;20053;-73
2023/11/24 09:21:51;;;;;;;6.35;1.00;;;;;;;;;;5024134;28;20049;-75
2023/11/24 09:24:21;;;;;;;9.60;1.63;;;;;;;;;;5023897;28;20057;-74
2023/11/24 09:26:53;;;;;;;11.23;1.38;;;;;;;;;;5024481;28;20053;-73
2023/11/24 09:29:25;;;;;;;9.02;1.30;;;;;;;;;;5025089;28;20052;-74
2023/11/24 09:31:58;;;;;;;6.72;1.50;;;;;;;;;;5023546;28;20061;-73
2023/11/24 09:34:28;;;;;;;7.03;1.40;;;;;;;;;;5025221;28;20422;-74
2023/11/24 09:37:01;;;;;;;7.20;1.30;;;;;;;;;;5024616;28;20054;-73
2023/11/24 09:39:32;;;;;;;7.97;1.67;;;;;;;;;;5006406;28;20064;-73
2023/11/24 09:42:03;;;;;;;14.68;1.67;;;;;;;;;;5024162;28;20053;-74
2023/11/24 09:44:34;;;;;;;19.10;2.38;;;;;;;;;;5024176;28;20055;-74
2023/11/24 09:47:07;;;;;;;8.55;1.55;;;;;;;;;;5024415;28;20045;-76
2023/11/24 09:49:40;;;;;;;7.32;2.13;;;;;;;;;;5024047;28;20411;-77
2023/11/24 09:52:12;;;;;;;5.40;1.58;;;;;;;;;;5023979;28;20154;-73
2023/11/24 09:54:42;;;;;;;6.05;1.80;;;;;;;;;;5023368;28;20072;-73
2023/11/24 09:57:26;;;;;;;7.82;1.98;;;;;;;;;;5022543;28;20057;-73
2023/11/24 09:59:57;;;;;;;8.57;1.83;;;;;;;;;;5023015;28;20041;-76
2023/11/24 10:02:29;;;;;;;11.48;2.00;;;;;;;;;;5024653;28;20045;-74
2023/11/24 10:05:00;;;;;;;11.75;1.63;;;;;;;;;;5024053;28;20065;-77
2023/11/24 10:07:32;;;;;;;8.90;2.42;;;;;;;;;;5024266;28;20061;-74
2023/11/24 10:10:05;;;;;;;4.60;1.27;;;;;;;;;;5023529;28;20045;-73
2023/11/24 10:12:37;;;;;;;7.15;1.52;;;;;;;;;;5023351;28;20049;-74
2023/11/24 10:15:07;;;;;;;6.43;1.20;;;;;;;;;;5023825;28;20057;-80
2023/11/24 10:17:37;;;;;;;6.35;1.58;;;;;;;;;;5024076;28;20049;-73
2023/11/24 10:20:11;;;;;;;8.45;1.65;;;;;;;;;;5023578;28;20052;-73
2023/11/24 10:22:41;;;;;;;9.15;1.70;;;;;;;;;;5023900;28;20049;-74
2023/11/24 10:25:12;;;;;;;8.40;1.85;;;;;;;;;;5032422;28;20052;-74
2023/11/24 10:27:42;;;;;;;7.82;1.20;;;;;;;;;;5042532;28;20652;-79
2023/11/24 10:30:13;;;;;;;12.95;2.42;;;;;;;;;;5043168;28;20044;-73
2023/11/24 10:32:50;;;;;;;9.65;1.48;;;;;;;;;;5043745;28;20822;-75
2023/11/24 10:35:20;;;;;;;4.80;1.13;;;;;;;;;;5041994;28;20057;-73
2023/11/24 10:37:51;;;;;;;10.07;1.23;;;;;;;;;;5042991;28;20065;-74
2023/11/24 10:40:22;;;;;;;4.55;1.13;;;;;;;;;;5043344;28;20057;-72
2023/11/24 10:42:55;;;;;;;6.60;1.67;;;;;;;;;;5041685;28;20057;-73
2023/11/24 10:45:30;;;;;;;7.72;1.50;;;;;;;;;;5043471;28;20048;-76
2023/11/24 10:48:14;;;;;;;7.72;1.58;;;;;;;;;;5043259;28;20049;-74
2023/11/24 10:51:12;;;;;;;5.30;1.52;;;;;;;;;;5042634;28;20041;-74
2023/11/24 10:53:52;;;;;;;8.25;1.20;;;;;;;;;;5041342;28;20573;-79
2023/11/24 10:56:23;;;;;;;6.45;1.45;;;;;;;;;;5043345;28;20049;-75
2023/11/24 10:58:56;;;;;;;5.10;1.35;;;;;;;;;;5042636;28;20064;-74
2023/11/24 11:01:27;;;;;;;10.65;1.42;;;;;;;;;;5043230;28;20052;-74
2023/11/24 11:04:00;;;;;;;4.55;1.20;;;;;;;;;;5042467;28;20049;-74
2023/11/24 11:06:40;;;;;;;10.02;0.90;;;;;;;;;;5042426;28;20052;-74
2023/11/24 11:12:12;;;;;;;5.28;0.98;;;;;;;;;;5042681;28;20051;-74
2023/11/24 11:14:44;;;;;;;7.38;1.13;;;;;;;;;;5042425;28;20053;-74
2023/11/24 11:17:20;;;;;;;8.02;1.45;;;;;;;;;;5042653;28;20523;-74
2023/11/24 11:19:58;;;;;;;9.73;1.30;;;;;;;;;;5042296;28;20670;-73
2023/11/24 11:22:45;;;;;;;5.70;1.13;;;;;;;;;;5040638;28;20058;-74
2023/11/24 11:25:25;;;;;;;3.50;1.05;;;;;;;;;;5042789;28;20587;-73
2023/11/24 11:28:16;;;;;;;5.82;1.30;;;;;;;;;;5043085;28;20072;-81
2023/11/24 11:30:48;;;;;;;4.35;1.33;;;;;;;;;;5042261;28;20045;-74
2023/11/24 11:33:22;;;;;;;6.57;0.82;;;;;;;;;;5041899;28;20048;-74
2023/11/24 11:36:05;;;;;;;5.03;1.13;;;;;;;;;;5041492;28;20049;-74
2023/11/24 11:38:45;;;;;;;5.03;1.05;;;;;;;;;;5040944;28;20526;-75
2023/11/24 11:41:49;;;;;;;5.05;0.93;;;;;;;;;;5042051;28;20041;-79
2023/11/24 11:44:24;;;;;;;8.13;1.33;;;;;;;;;;5041760;28;20534;-74
2023/11/24 11:47:20;;;;;;;3.42;1.05;;;;;;;;;;5042078;28;20063;-73
2023/11/24 11:49:53;;;;;;;7.25;1.20;;;;;;;;;;5041680;28;20083;-74
2023/11/24 11:52:28;;;;;;;8.45;1.05;;;;;;;;;;5041777;28;20052;-77
2023/11/24 11:55:00;;;;;;;3.10;0.98;;;;;;;;;;5040969;28;20519;-74
2023/11/24 11:57:32;;;;;;;14.98;5.45;;;;;;;;;;5042545;28;20041;-73
2023/11/24 12:00:06;;;;;;;4.45;1.10;;;;;;;;;;5042349;28;20398;-73
2023/11/24 12:02:38;;;;;;;5.25;1.10;;;;;;;;;;5043123;28;20059;-75
2023/11/24 12:05:14;;;;;;;7.68;1.10;;;;;;;;;;5041769;28;20045;-74
2023/11/24 12:07:45;;;;;;;10.18;2.85;;;;;;;;;;5042133;28;20053;-73
2023/11/24 12:10:16;;;;;;;4.68;1.25;;;;;;;;;;5041768;28;20045;-73
2023/11/24 12:12:46;;;;;;;6.07;1.92;;;;;;;;;;5041876;28;20048;-73
2023/11/24 12:15:19;;;;;;;6.97;1.10;;;;;;;;;;5041844;28;20407;-74
2023/11/24 12:18:31;;;;;;;5.55;1.23;;;;;;;;;;5039822;28;20057;-72
2023/11/24 12:21:02;;;;;;;5.57;0.88;;;;;;;;;;5041288;28;20100;-75
2023/11/24 12:23:33;;;;;;;5.63;1.20;;;;;;;;;;5041838;28;20423;-74
2023/11/24 12:26:03;;;;;;;5.78;0.98;;;;;;;;;;5024467;28;20053;-78
2023/11/24 12:28:34;;;;;;;3.85;1.10;;;;;;;;;;5041008;28;20594;-76
2023/11/24 12:31:05;;;;;;;6.32;0.95;;;;;;;;;;5040705;28;20488;-74
2023/11/24 12:33:40;;;;;;;5.85;1.08;;;;;;;;;;5041547;28;20079;-73
2023/11/24 12:36:12;;;;;;;8.05;2.17;;;;;;;;;;5041599;28;20049;-75
2023/11/24 12:38:42;;;;;;;4.30;0.80;;;;;;;;;;5042080;28;20064;-74
2023/11/24 12:41:15;;;;;;;3.83;0.90;;;;;;;;;;5041548;28;20504;-80
2023/11/24 12:43:50;;;;;;;5.47;1.08;;;;;;;;;;5041121;28;20049;-74
2023/11/24 12:46:21;;;;;;;2.08;0.60;;;;;;;;;;5041597;28;20052;-74
2023/11/24 12:49:04;;;;;;;3.78;1.15;;;;;;;;;;5041475;28;20610;-75
2023/11/24 12:51:38;;;;;;;4.45;1.77;;;;;;;;;;5042448;28;20049;-73
2023/11/24 12:54:09;;;;;;;3.80;0.80;;;;;;;;;;5040826;28;20439;-75
2023/11/24 12:56:39;;;;;;;5.85;1.40;;;;;;;;;;5041225;28;20045;-74
2023/11/24 12:59:10;;;;;;;4.95;1.25;;;;;;;;;;5041627;28;20403;-73
2023/11/24 13:01:41;;;;;;;3.17;0.82;;;;;;;;;;5045550;28;20056;-75
2023/11/24 13:04:13;;;;;;;5.68;0.73;;;;;;;;;;5045228;28;20041;-74
2023/11/24 13:06:44;;;;;;;3.25;1.23;;;;;;;;;;5043912;28;20048;-74
2023/11/24 13:09:15;;;;;;;4.25;0.82;;;;;;;;;;5044756;28;20049;-74
2023/11/24 13:11:46;;;;;;;3.45;0.73;;;;;;;;;;5043091;28;20064;-81
2023/11/24 13:14:22;;;;;;;3.55;0.90;;;;;;;;;;5045252;28;20421;-73
2023/11/24 13:16:52;;;;;;;5.15;0.80;;;;;;;;;;5044659;28;20052;-74
2023/11/24 13:19:23;;;;;;;6.85;1.90;;;;;;;;;;5044128;28;20422;-75
2023/11/24 13:21:56;;;;;;;6.40;1.08;;;;;;;;;;5044583;28;20055;-75
2023/11/24 13:24:31;;;;;;;7.00;1.20;;;;;;;;;;5043111;28;20057;-75
2023/11/24 13:27:03;;;;;;;2.75;0.88;;;;;;;;;;5044453;28;20068;-75
2023/11/24 13:29:33;;;;;;;5.47;0.90;;;;;;;;;;5043969;28;20076;-75
2023/11/24 13:32:07;;;;;;;6.38;1.10;;;;;;;;;;5043245;28;20049;-77
2023/11/24 13:34:41;;;;;;;7.82;1.25;;;;;;;;;;5042967;28;20059;-79
2023/11/24 13:37:11;;;;;;;6.03;0.85;;;;;;;;;;5044671;28;20057;-75
2023/11/24 13:39:42;;;;;;;5.43;0.63;;;;;;;;;;5045060;28;20049;-74
2023/11/24 13:42:13;;;;;;;4.93;0.85;;;;;;;;;;5044141;28;20412;-74
2023/11/24 13:44:45;;;;;;;3.03;1.30;;;;;;;;;;5044194;28;20037;-75
2023/11/24 13:47:16;;;;;;;1.77;0.50;;;;;;;;;;5044414;28;20049;-75
2023/11/24 13:49:49;;;;;;;2.22;0.57;;;;;;;;;;5044225;28;20515;-75
2023/11/24 13:52:19;;;;;;;4.20;0.70;;;;;;;;;;5044493;28;20056;-74
2023/11/24 13:54:50;;;;;;;4.18;0.85;;;;;;;;;;5043641;28;20148;-74
2023/11/24 13:57:21;;;;;;;7.35;1.00;;;;;;;;;;5044322;28;20045;-75
2023/11/24 13:59:51;;;;;;;5.75;0.70;;;;;;;;;;5044307;28;20496;-74
2023/11/24 14:02:21;;;;;;;4.40;1.02;;;;;;;;;;5044064;28;20435;-73
2023/11/24 14:04:54;;;;;;;7.70;0.98;;;;;;;;;;5043747;28;20045;-74
2023/11/24 14:07:24;;;;;;;7.53;0.70;;;;;;;;;;5043480;28;20037;-74
2023/11/24 14:09:54;;;;;;;9.05;1.08;;;;;;;;;;5042723;28;20515;-82
2023/11/24 14:12:24;;;;;;;5.43;1.33;;;;;;;;;;5044357;28;20042;-73
2023/11/24 14:14:55;;;;;;;6.20;0.75;;;;;;;;;;5043231;28;20068;-74
2023/11/24 14:17:26;;;;;;;6.80;1.00;;;;;;;;;;5042700;28;20052;-82
2023/11/24 14:19:56;;;;;;;4.88;0.77;;;;;;;;;;5043394;28;20060;-74
2023/11/24 14:22:27;;;;;;;2.58;0.70;;;;;;;;;;5044060;28;20041;-75
2023/11/24 14:24:58;;;;;;;6.22;1.15;;;;;;;;;;5044052;28;20048;-75
2023/11/24 14:27:29;;;;;;;3.28;0.60;;;;;;;;;;5044174;28;20523;-75
2023/11/24 14:30:01;;;;;;;2.95;0.63;;;;;;;;;;5044395;28;20049;-75
2023/11/24 14:32:32;;;;;;;2.85;0.50;;;;;;;;;;5043362;28;20050;-76
2023/11/24 14:35:05;;;;;;;3.22;0.77;;;;;;;;;;5043389;28;20057;-75
2023/11/24 14:37:37;;;;;;;2.90;0.75;;;;;;;;;;5042826;28;20122;-73
2023/11/24 14:40:14;;;;;;;2.53;0.80;;;;;;;;;;5043115;28;20439;-74
2023/11/24 14:42:49;;;;;;;5.28;0.68;;;;;;;;;;5042643;28;20053;-74
2023/11/24 14:45:21;;;;;;;3.33;0.70;;;;;;;;;;5041974;28;20051;-75
2023/11/24 14:47:54;;;;;;;5.53;1.20;;;;;;;;;;5042931;28;20079;-74
2023/11/24 14:50:27;;;;;;;2.38;0.75;;;;;;;;;;5042484;28;20045;-73
2023/11/24 14:52:58;;;;;;;2.58;0.80;;;;;;;;;;5042697;28;20049;-74
2023/11/24 14:55:28;;;;;;;2.63;0.60;;;;;;;;;;5041585;28;20045;-75
2023/11/24 14:57:59;;;;;;;4.38;0.88;;;;;;;;;;5042346;28;20037;-75
2023/11/24 15:00:34;;;;;;;4.45;0.93;;;;;;;;;;5043701;28;20037;-75
2023/11/24 15:03:06;;;;;;;4.10;0.75;;;;;;;;;;5043459;28;20044;-76
2023/11/24 15:05:41;;;;;;;3.00;0.73;;;;;;;;;;5042699;28;20044;-75
2023/11/24 15:08:14;;;;;;;2.42;0.73;;;;;;;;;;5041611;28;20059;-75
2023/11/24 15:10:47;;;;;;;4.10;0.65;;;;;;;;;;5042749;28;20063;-72
2023/11/24 15:13:24;;;;;;;1.48;0.50;;;;;;;;;;5042763;28;20045;-75
2023/11/24 15:15:58;;;;;;;3.83;0.60;;;;;;;;;;5042274;28;20084;-74